createdAt,value
2018-05-14T00:00:51.954Z,81.50
2018-05-14T00:03:19.414Z,81.00
2018-05-14T00:05:46.846Z,80.90
2018-05-14T00:08:14.322Z,81.00
2018-05-14T00:10:41.784Z,81.20
2018-05-14T00:13:09.231Z,80.80
2018-05-14T00:15:36.673Z,80.70
2018-05-14T00:18:04.102Z,80.80
2018-05-14T00:20:32.306Z,80.30
2018-05-14T00:22:59.750Z,80.30
2018-05-14T00:25:27.238Z,80.20
2018-05-14T00:27:54.702Z,80.10
2018-05-14T00:30:22.138Z,80.20
2018-05-14T00:32:49.578Z,80.40
2018-05-14T00:35:17.066Z,80.30
2018-05-14T00:37:44.494Z,80.20
2018-05-14T00:40:11.929Z,80.20
2018-05-14T00:42:40.143Z,80.10
2018-05-14T00:45:07.575Z,80.10
2018-05-14T00:47:35.583Z,80.30
2018-05-14T00:50:03.043Z,80.00
2018-05-14T00:52:30.494Z,79.90
2018-05-14T00:55:09.727Z,80.10
2018-05-14T00:57:37.170Z,80.10
2018-05-14T01:00:04.615Z,80.20
2018-05-14T01:02:32.911Z,80.30
2018-05-14T01:05:00.335Z,80.10
2018-05-14T01:07:27.765Z,79.80
2018-05-14T01:09:56.006Z,80.30
2018-05-14T01:12:23.443Z,79.70
2018-05-14T01:14:50.923Z,79.50
2018-05-14T01:17:18.358Z,79.60
2018-05-14T01:19:45.790Z,79.80
2018-05-14T01:22:13.291Z,79.50
2018-05-14T01:24:55.610Z,79.40
2018-05-14T01:27:23.070Z,79.30
2018-05-14T01:29:50.614Z,79.60
2018-05-14T01:32:18.056Z,79.70
2018-05-14T01:34:45.530Z,80.20
2018-05-14T01:37:12.970Z,79.50
2018-05-14T01:39:40.415Z,79.40
2018-05-14T01:42:07.854Z,79.20
2018-05-14T01:44:35.354Z,79.20
2018-05-14T01:47:02.818Z,79.50
2018-05-14T01:49:30.698Z,79.20
2018-05-14T01:51:58.150Z,79.20
2018-05-14T01:54:25.691Z,79.20
2018-05-14T01:56:53.138Z,78.70
2018-05-14T01:59:20.593Z,79.30
2018-05-14T02:01:48.067Z,79.10
2018-05-14T02:04:15.514Z,79.20
2018-05-14T02:06:43.652Z,78.70
2018-05-14T02:09:11.971Z,78.80
2018-05-14T02:11:39.431Z,78.70
2018-05-14T02:14:06.866Z,79.10
2018-05-14T02:16:34.750Z,78.90
2018-05-14T02:19:02.195Z,78.60
2018-05-14T02:21:29.636Z,78.70
2018-05-14T02:23:57.120Z,78.70
2018-05-14T02:26:24.567Z,78.70
2018-05-14T02:28:52.014Z,78.50
2018-05-14T02:31:19.492Z,78.40
2018-05-14T02:33:46.946Z,78.20
2018-05-14T02:36:14.404Z,78.40
2018-05-14T02:38:41.846Z,78.70
2018-05-14T02:41:09.287Z,78.70
2018-05-14T02:43:36.736Z,78.20
2018-05-14T02:46:04.235Z,78.10
2018-05-14T02:48:31.959Z,77.90
2018-05-14T02:50:59.394Z,78.10
2018-05-14T02:53:27.634Z,77.80
2018-05-14T02:55:55.071Z,77.80
2018-05-14T02:58:22.520Z,78.10
2018-05-14T03:00:49.962Z,78.10
2018-05-14T03:03:17.406Z,77.80
2018-05-14T03:05:45.626Z,77.80
2018-05-14T03:08:13.066Z,77.70
2018-05-14T03:10:40.505Z,77.70
2018-05-14T03:13:07.998Z,77.60
2018-05-14T03:15:35.479Z,77.70
2018-05-14T03:18:03.014Z,77.70
2018-05-14T03:20:30.450Z,77.80
2018-05-14T03:22:57.934Z,77.80
2018-05-14T03:25:25.375Z,77.60
2018-05-14T03:27:52.947Z,77.70
2018-05-14T03:30:20.410Z,78.00
2018-05-14T03:32:47.846Z,77.80
2018-05-14T03:35:15.306Z,77.70
2018-05-14T03:37:42.773Z,77.70
2018-05-14T03:40:10.232Z,77.60
2018-05-14T03:42:37.667Z,77.60
2018-05-14T03:45:05.111Z,77.50
2018-05-14T03:47:32.548Z,77.70
2018-05-14T03:50:00.752Z,77.50
2018-05-14T03:52:28.230Z,77.50
2018-05-14T03:54:55.692Z,77.20
2018-05-14T03:57:23.138Z,77.20
2018-05-14T04:00:02.509Z,77.30
2018-05-14T04:02:41.950Z,77.30
2018-05-14T04:05:19.092Z,77.30
2018-05-14T04:07:46.562Z,77.20
2018-05-14T04:10:14.022Z,77.00
2018-05-14T04:12:41.475Z,77.10
2018-05-14T04:15:08.933Z,76.90
2018-05-14T04:17:36.391Z,76.70
2018-05-14T04:20:03.851Z,76.90
2018-05-14T04:22:31.407Z,77.60
2018-05-14T04:24:58.863Z,77.50
2018-05-14T04:27:26.317Z,77.00
2018-05-14T04:29:53.881Z,77.40
2018-05-14T04:32:21.339Z,77.50
2018-05-14T04:34:48.794Z,77.80
2018-05-14T04:37:16.357Z,77.40
2018-05-14T04:39:43.790Z,77.10
2018-05-14T04:42:11.270Z,77.60
2018-05-14T04:44:38.710Z,76.80
2018-05-14T04:47:06.153Z,76.90
2018-05-14T04:49:33.590Z,77.20
2018-05-14T04:52:01.916Z,77.20
2018-05-14T04:54:29.399Z,77.20
2018-05-14T04:56:56.838Z,77.00
2018-05-14T04:59:24.282Z,76.80
2018-05-14T05:01:51.741Z,76.80
2018-05-14T05:04:19.258Z,76.70
2018-05-14T05:06:46.702Z,76.30
2018-05-14T05:09:14.918Z,76.40
2018-05-14T05:11:42.363Z,76.40
2018-05-14T05:14:09.846Z,76.30
2018-05-14T05:16:37.299Z,76.50
2018-05-14T05:19:04.739Z,76.70
2018-05-14T05:21:32.191Z,76.70
2018-05-14T05:23:59.625Z,76.30
2018-05-14T05:26:27.125Z,76.20
2018-05-14T05:28:54.565Z,76.40
2018-05-14T05:31:22.010Z,76.30
2018-05-14T05:33:49.457Z,76.30
2018-05-14T05:36:16.916Z,76.20
2018-05-14T05:38:44.357Z,76.10
2018-05-14T05:41:12.590Z,76.70
2018-05-14T05:43:40.152Z,76.70
2018-05-14T05:46:07.607Z,76.70
2018-05-14T05:48:35.087Z,76.80
2018-05-14T05:51:02.622Z,76.60
2018-05-14T05:53:30.062Z,76.80
2018-05-14T05:55:57.579Z,77.10
2018-05-14T05:58:25.791Z,77.00
2018-05-14T06:00:53.270Z,77.00
2018-05-14T06:03:20.718Z,77.20
2018-05-14T06:05:48.182Z,77.10
2018-05-14T06:08:15.638Z,77.00
2018-05-14T06:10:43.087Z,76.90
2018-05-14T06:13:10.534Z,77.50
2018-05-14T06:15:37.971Z,77.00
2018-05-14T06:18:05.467Z,77.20
2018-05-14T06:20:32.909Z,76.50
2018-05-14T06:23:00.386Z,76.40
2018-05-14T06:25:27.942Z,76.20
2018-05-14T06:27:55.412Z,76.00
2018-05-14T06:30:22.838Z,76.30
2018-05-14T06:32:50.279Z,76.20
2018-05-14T06:35:17.770Z,76.10
2018-05-14T06:37:45.230Z,76.20
2018-05-14T06:40:13.007Z,76.10
2018-05-14T06:42:40.434Z,76.30
2018-05-14T06:45:08.218Z,76.20
2018-05-14T06:47:35.669Z,75.90
2018-05-14T06:50:03.235Z,76.00
2018-05-14T06:52:30.687Z,76.20
2018-05-14T06:54:59.366Z,76.00
2018-05-14T06:57:27.417Z,76.20
2018-05-14T06:59:54.859Z,76.20
2018-05-14T07:02:22.293Z,75.90
2018-05-14T07:04:50.504Z,75.80
2018-05-14T07:07:17.978Z,75.70
2018-05-14T07:09:45.458Z,75.60
2018-05-14T07:12:12.998Z,75.50
2018-05-14T07:14:40.434Z,76.20
2018-05-14T07:17:07.934Z,75.80
2018-05-14T07:19:35.382Z,75.80
2018-05-14T07:22:02.926Z,75.90
2018-05-14T07:24:30.902Z,75.90
2018-05-14T07:26:58.362Z,75.70
2018-05-14T07:29:25.913Z,75.40
2018-05-14T07:31:53.474Z,75.20
2018-05-14T07:34:20.926Z,75.60
2018-05-14T07:36:48.368Z,75.90
2018-05-14T07:39:15.846Z,75.80
2018-05-14T07:41:43.284Z,75.50
2018-05-14T07:44:10.721Z,75.20
2018-05-14T07:46:38.217Z,75.70
2018-05-14T07:49:05.650Z,75.30
2018-05-14T07:51:33.090Z,76.10
2018-05-14T07:54:00.586Z,76.90
2018-05-14T07:56:28.057Z,76.90
2018-05-14T07:58:55.505Z,77.50
2018-05-14T08:01:22.954Z,78.20
2018-05-14T08:03:50.414Z,78.10
2018-05-14T08:06:17.874Z,79.10
2018-05-14T08:08:45.326Z,79.80
2018-05-14T08:11:12.782Z,79.20
2018-05-14T08:13:40.242Z,79.40
2018-05-14T08:16:07.697Z,79.00
2018-05-14T08:18:35.154Z,79.00
2018-05-14T08:21:03.034Z,79.40
2018-05-14T08:23:30.536Z,79.20
2018-05-14T08:25:58.042Z,79.10
2018-05-14T08:28:25.490Z,78.90
2018-05-14T08:30:52.933Z,79.00
2018-05-14T08:33:20.391Z,79.20
2018-05-14T08:35:47.821Z,79.40
2018-05-14T08:38:15.335Z,79.50
2018-05-14T08:40:42.882Z,79.40
2018-05-14T08:43:10.315Z,79.30
2018-05-14T08:45:37.754Z,78.90
2018-05-14T08:48:05.388Z,79.20
2018-05-14T08:50:32.711Z,79.40
2018-05-14T08:53:00.169Z,79.50
2018-05-14T08:55:27.719Z,79.60
2018-05-14T08:57:55.178Z,79.90
2018-05-14T09:00:22.638Z,79.60
2018-05-14T09:02:50.078Z,79.50
2018-05-14T09:05:17.524Z,79.90
2018-05-14T09:07:45.007Z,80.00
2018-05-14T09:10:12.446Z,79.90
2018-05-14T09:12:39.889Z,79.90
2018-05-14T09:15:07.342Z,80.00
2018-05-14T09:17:34.839Z,80.50
2018-05-14T09:20:02.375Z,79.90
2018-05-14T09:22:30.174Z,80.00
2018-05-14T09:24:57.606Z,79.60
2018-05-14T09:27:25.075Z,79.50
2018-05-14T09:29:52.530Z,80.00
2018-05-14T09:32:20.598Z,80.00
2018-05-14T09:34:48.059Z,79.60
2018-05-14T09:37:15.583Z,79.80
2018-05-14T09:39:42.939Z,79.60
2018-05-14T09:42:10.379Z,79.60
2018-05-14T09:44:38.669Z,79.60
2018-05-14T09:47:06.038Z,79.60
2018-05-14T09:49:33.518Z,79.70
2018-05-14T09:52:00.975Z,79.70
2018-05-14T09:54:28.422Z,79.60
2018-05-14T09:56:55.946Z,79.50
2018-05-14T09:59:23.383Z,79.60
2018-05-14T10:01:51.626Z,80.00
2018-05-14T10:04:19.080Z,79.40
2018-05-14T10:06:46.546Z,79.20
2018-05-14T10:09:13.979Z,79.20
2018-05-14T10:11:41.434Z,79.20
2018-05-14T10:14:08.885Z,79.10
2018-05-14T10:16:36.362Z,79.20
2018-05-14T10:19:03.818Z,78.80
2018-05-14T10:21:31.253Z,78.80
2018-05-14T10:23:58.714Z,78.60
2018-05-14T10:26:26.194Z,78.70
2018-05-14T10:28:53.645Z,78.30
2018-05-14T10:31:21.111Z,77.90
2018-05-14T10:33:48.566Z,78.00
2018-05-14T10:36:16.018Z,77.60
2018-05-14T10:38:43.473Z,77.30
2018-05-14T10:41:10.926Z,77.20
2018-05-14T10:43:38.368Z,77.10
2018-05-14T10:46:05.846Z,77.20
2018-05-14T10:48:33.279Z,77.30
2018-05-14T10:51:00.757Z,77.10
2018-05-14T10:53:28.217Z,76.70
2018-05-14T10:55:55.679Z,76.50
2018-05-14T10:58:23.126Z,76.50
2018-05-14T11:00:50.564Z,76.60
2018-05-14T11:03:17.994Z,76.60
2018-05-14T11:05:46.195Z,76.60
2018-05-14T11:08:13.688Z,76.60
2018-05-14T11:10:41.186Z,76.50
2018-05-14T11:13:08.593Z,76.50
2018-05-14T11:15:36.049Z,76.40
2018-05-14T11:18:03.513Z,76.40
2018-05-14T11:20:30.962Z,76.50
2018-05-14T11:22:58.394Z,76.30
2018-05-14T11:25:25.830Z,76.30
2018-05-14T11:27:53.467Z,76.20
2018-05-14T11:30:20.867Z,76.00
2018-05-14T11:32:48.327Z,75.80
2018-05-14T11:35:15.838Z,75.80
2018-05-14T11:37:43.191Z,75.70
2018-05-14T11:40:10.634Z,75.60
2018-05-14T11:42:38.071Z,75.70
2018-05-14T11:45:05.499Z,75.50
2018-05-14T11:47:32.982Z,75.50
2018-05-14T11:50:00.442Z,76.20
2018-05-14T11:52:27.885Z,75.40
2018-05-14T11:54:55.354Z,75.20
2018-05-14T11:57:22.814Z,75.20
2018-05-14T11:59:50.250Z,75.30
2018-05-14T12:02:17.695Z,75.30
2018-05-14T12:04:45.129Z,75.30
2018-05-14T12:07:13.350Z,75.20
2018-05-14T12:09:40.810Z,75.20
2018-05-14T12:12:08.315Z,75.00
2018-05-14T12:14:35.733Z,75.00
2018-05-14T12:17:03.182Z,74.80
2018-05-14T12:19:30.617Z,74.40
2018-05-14T12:21:58.102Z,74.20
2018-05-14T12:24:25.552Z,74.30
2018-05-14T12:26:53.830Z,73.90
2018-05-14T12:29:21.290Z,73.60
2018-05-14T12:31:48.866Z,73.40
2018-05-14T12:34:16.406Z,73.10
2018-05-14T12:36:43.866Z,72.60
2018-05-14T12:39:11.306Z,72.60
2018-05-14T12:41:38.774Z,72.70
2018-05-14T12:44:06.218Z,72.70
2018-05-14T12:46:33.649Z,72.60
2018-05-14T12:49:01.254Z,72.50
2018-05-14T12:51:28.708Z,72.30
2018-05-14T12:53:56.143Z,72.20
2018-05-14T12:56:23.574Z,71.70
2018-05-14T12:58:51.074Z,71.80
2018-05-14T13:01:18.530Z,71.70
2018-05-14T13:03:45.990Z,71.80
2018-05-14T13:06:13.445Z,71.60
2018-05-14T13:08:40.902Z,71.60
2018-05-14T13:11:08.338Z,71.30
2018-05-14T13:13:35.790Z,71.30
2018-05-14T13:16:03.283Z,71.30
2018-05-14T13:18:30.834Z,70.90
2018-05-14T13:20:58.294Z,70.50
2018-05-14T13:23:25.852Z,70.20
2018-05-14T13:25:53.313Z,70.20
2018-05-14T13:28:20.767Z,69.70
2018-05-14T13:30:48.237Z,69.60
2018-05-14T13:33:15.783Z,69.50
2018-05-14T13:35:43.245Z,69.70
2018-05-14T13:38:10.683Z,69.60
2018-05-14T13:40:38.184Z,69.40
2018-05-14T13:43:05.562Z,69.20
2018-05-14T13:45:33.770Z,68.60
2018-05-14T13:48:01.239Z,68.60
2018-05-14T13:50:28.889Z,68.50
2018-05-14T13:52:56.358Z,68.60
2018-05-14T13:55:23.819Z,68.50
2018-05-14T13:57:51.990Z,68.30
2018-05-14T14:00:19.424Z,68.80
2018-05-14T14:02:46.863Z,68.70
2018-05-14T14:05:14.366Z,68.60
2018-05-14T14:07:41.799Z,68.50
2018-05-14T14:10:09.230Z,68.10
2018-05-14T14:12:36.778Z,67.90
2018-05-14T14:15:04.291Z,67.50
2018-05-14T14:17:31.745Z,67.30
2018-05-14T14:19:59.179Z,67.30
2018-05-14T14:22:26.614Z,67.30
2018-05-14T14:24:54.053Z,67.00
2018-05-14T14:27:22.290Z,66.90
2018-05-14T14:29:49.890Z,67.60
2018-05-14T14:32:17.294Z,67.20
2018-05-14T14:34:44.723Z,67.20
2018-05-14T14:37:12.228Z,67.10
2018-05-14T14:39:39.679Z,66.80
2018-05-14T14:42:07.147Z,67.10
2018-05-14T14:44:34.596Z,66.90
2018-05-14T14:47:02.052Z,66.90
2018-05-14T14:49:29.482Z,66.90
2018-05-14T14:51:56.928Z,66.90
2018-05-14T14:54:24.445Z,66.80
2018-05-14T14:56:51.978Z,66.70
2018-05-14T14:59:19.487Z,66.40
2018-05-14T15:01:46.884Z,66.80
2018-05-14T15:04:14.654Z,66.90
2018-05-14T15:06:42.114Z,66.80
2018-05-14T15:09:09.570Z,66.40
2018-05-14T15:11:37.030Z,66.40
2018-05-14T15:14:04.487Z,66.40
2018-05-14T15:16:31.916Z,66.50
2018-05-14T15:18:59.361Z,66.20
2018-05-14T15:21:27.210Z,65.60
2018-05-14T15:23:55.432Z,66.30
2018-05-14T15:26:22.858Z,66.40
2018-05-14T15:28:50.294Z,66.50
2018-05-14T15:31:18.624Z,67.50
2018-05-14T15:33:46.060Z,67.50
2018-05-14T15:36:13.490Z,67.60
2018-05-14T15:38:41.707Z,68.10
2018-05-14T15:41:09.174Z,68.10
2018-05-14T15:43:36.610Z,68.00
2018-05-14T15:46:04.045Z,67.80
2018-05-14T15:48:31.478Z,67.20
2018-05-14T15:50:59.688Z,66.70
2018-05-14T15:53:27.169Z,66.60
2018-05-14T15:55:55.366Z,66.40
2018-05-14T15:58:22.807Z,66.10
2018-05-14T16:00:50.250Z,65.80
2018-05-14T16:03:17.693Z,65.10
2018-05-14T16:05:45.175Z,65.20
2018-05-14T16:08:12.634Z,65.00
2018-05-14T16:10:40.086Z,64.90
2018-05-14T16:13:07.525Z,64.40
2018-05-14T16:15:35.647Z,64.50
2018-05-14T16:18:04.614Z,64.20
2018-05-14T16:20:32.062Z,64.20
2018-05-14T16:22:59.521Z,63.40
2018-05-14T16:25:26.977Z,63.10
2018-05-14T16:27:54.415Z,63.10
2018-05-14T16:30:21.850Z,63.50
2018-05-14T16:32:49.287Z,63.20
2018-05-14T16:35:17.495Z,62.90
2018-05-14T16:37:44.982Z,63.50
2018-05-14T16:40:12.422Z,62.30
2018-05-14T16:42:39.901Z,62.60
2018-05-14T16:45:07.451Z,62.30
2018-05-14T16:47:34.914Z,62.70
2018-05-14T16:50:02.361Z,62.10
2018-05-14T16:52:29.801Z,62.30
2018-05-14T16:54:57.291Z,62.30
2018-05-14T16:57:24.738Z,62.20
2018-05-14T16:59:52.175Z,62.20
2018-05-14T17:02:19.649Z,62.00
2018-05-14T17:04:47.106Z,61.60
2018-05-14T17:07:14.547Z,62.60
2018-05-14T17:09:41.982Z,62.10
2018-05-14T17:12:09.475Z,62.10
2018-05-14T17:14:36.911Z,62.10
2018-05-14T17:17:04.342Z,61.90
2018-05-14T17:19:32.566Z,61.60
2018-05-14T17:22:00.028Z,61.60
2018-05-14T17:24:27.489Z,61.60
2018-05-14T17:26:54.967Z,61.50
2018-05-14T17:29:22.498Z,61.30
2018-05-14T17:31:49.953Z,61.40
2018-05-14T17:34:17.414Z,61.40
2018-05-14T17:36:44.869Z,60.90
2018-05-14T17:39:12.327Z,60.90
2018-05-14T17:41:40.397Z,60.70
2018-05-14T17:46:41.760Z,59.80
2018-05-14T17:49:09.222Z,59.40
2018-05-14T17:51:36.673Z,59.30
2018-05-14T17:54:04.138Z,59.20
2018-05-14T17:56:31.586Z,59.00
2018-05-14T17:58:59.041Z,59.00
2018-05-14T18:01:26.470Z,58.60
2018-05-14T18:03:53.971Z,58.10
2018-05-14T18:06:21.526Z,58.00
2018-05-14T18:08:49.578Z,57.70
2018-05-14T18:11:17.044Z,57.90
2018-05-14T18:13:44.479Z,57.50
2018-05-14T18:16:11.911Z,57.50
2018-05-14T18:18:40.118Z,57.10
2018-05-14T18:21:11.538Z,57.10
2018-05-14T18:23:44.730Z,56.90
2018-05-14T18:26:17.075Z,56.70
2018-05-14T18:28:54.683Z,56.60
2018-05-14T18:31:26.793Z,56.60
2018-05-14T18:33:54.256Z,56.10
2018-05-14T18:36:21.730Z,56.40
2018-05-14T18:38:49.190Z,56.20
2018-05-14T18:41:16.646Z,56.50
2018-05-14T18:43:44.105Z,56.00
2018-05-14T18:46:12.070Z,56.10
2018-05-14T18:48:39.508Z,55.50
2018-05-14T18:51:06.986Z,55.60
2018-05-14T18:53:34.442Z,54.20
2018-05-14T18:56:01.905Z,54.60
2018-05-14T18:58:29.360Z,54.60
2018-05-14T19:00:56.773Z,54.50
2018-05-14T19:03:24.217Z,54.60
2018-05-14T19:05:52.458Z,53.50
2018-05-14T19:08:20.002Z,53.50
2018-05-14T19:10:53.139Z,53.90
2018-05-14T19:13:21.346Z,53.20
2018-05-14T19:15:54.426Z,53.20
2018-05-14T19:18:21.865Z,53.00
2018-05-14T19:20:50.421Z,53.70
2018-05-14T19:23:23.531Z,53.70
2018-05-14T19:25:51.762Z,52.80
2018-05-14T19:28:24.999Z,52.80
2018-05-14T19:30:53.231Z,52.20
2018-05-14T19:33:26.202Z,52.20
2018-05-14T19:35:59.544Z,52.60
2018-05-14T19:38:26.977Z,51.40
2018-05-14T19:40:54.413Z,52.00
2018-05-14T19:43:21.842Z,51.80
2018-05-14T19:45:49.295Z,51.40
2018-05-14T19:48:16.726Z,51.40
2018-05-14T19:50:44.153Z,51.70
2018-05-14T19:53:11.596Z,51.00
2018-05-14T19:55:39.037Z,51.20
2018-05-14T19:58:06.465Z,50.50
2018-05-14T20:00:34.674Z,49.90
2018-05-14T20:03:02.101Z,49.80
2018-05-14T20:05:30.298Z,49.90
2018-05-14T20:07:57.739Z,49.90
2018-05-14T20:10:25.174Z,49.70
2018-05-14T20:12:53.399Z,49.40
2018-05-14T20:15:20.810Z,49.40
2018-05-14T20:17:49.002Z,48.50
2018-05-14T20:20:16.438Z,48.40
2018-05-14T20:22:44.669Z,48.00
2018-05-14T20:25:12.114Z,48.00
2018-05-14T20:27:39.542Z,48.80
2018-05-14T20:30:06.978Z,48.80
2018-05-14T20:32:35.176Z,49.00
2018-05-14T20:35:02.626Z,48.90
2018-05-14T20:37:30.928Z,48.30
2018-05-14T20:39:58.254Z,48.30
2018-05-14T20:42:26.474Z,47.10
2018-05-14T20:44:53.908Z,47.10
2018-05-14T20:47:21.330Z,47.00
2018-05-14T20:49:49.531Z,47.30
2018-05-14T20:52:17.076Z,47.30
2018-05-14T20:54:44.454Z,47.60
2018-05-14T20:57:11.934Z,47.60
2018-05-14T20:59:39.455Z,48.10
2018-05-14T21:02:06.804Z,47.30
2018-05-14T21:04:34.310Z,46.80
2018-05-14T21:07:01.768Z,46.80
2018-05-14T21:09:29.198Z,47.40
2018-05-14T21:11:56.680Z,47.20
2018-05-14T21:14:24.118Z,46.40
2018-05-14T21:16:51.550Z,46.90
2018-05-14T21:19:19.046Z,46.80
2018-05-14T21:21:46.518Z,46.40
2018-05-14T21:24:13.962Z,46.40
2018-05-14T21:26:41.403Z,46.40
2018-05-14T21:29:08.883Z,46.30
2018-05-14T21:31:36.444Z,46.30
2018-05-14T21:34:03.898Z,46.60
2018-05-14T21:36:31.344Z,46.40
2018-05-14T21:38:58.802Z,46.60
2018-05-14T21:41:26.262Z,46.40
2018-05-14T21:43:53.715Z,46.60
2018-05-14T21:46:21.174Z,46.60
2018-05-14T21:48:48.629Z,46.30
2018-05-14T21:51:16.082Z,45.10
2018-05-14T21:53:43.870Z,45.50
2018-05-14T21:56:11.298Z,45.30
2018-05-14T21:58:38.766Z,44.20
2018-05-14T22:01:06.211Z,44.80
2018-05-14T22:03:33.678Z,44.60
2018-05-14T22:06:01.113Z,44.60
2018-05-14T22:08:28.610Z,43.80
2018-05-14T22:10:56.050Z,44.30
2018-05-14T22:13:23.487Z,44.30
2018-05-14T22:15:50.966Z,44.30
2018-05-14T22:18:18.513Z,44.00
2018-05-14T22:20:45.864Z,44.30
2018-05-14T22:23:13.334Z,44.10
2018-05-14T22:25:40.783Z,44.40
2018-05-14T22:28:08.482Z,44.40
2018-05-14T22:30:36.018Z,44.80
2018-05-14T22:33:03.481Z,44.80
2018-05-14T22:35:30.926Z,44.70
2018-05-14T22:37:58.386Z,44.60
2018-05-14T22:40:25.839Z,44.60
2018-05-14T22:42:53.300Z,44.60
2018-05-14T22:45:20.767Z,44.20
2018-05-14T22:47:48.319Z,44.90
2018-05-14T22:50:16.282Z,44.80
2018-05-14T22:52:43.715Z,44.80
2018-05-14T22:55:11.150Z,45.20
2018-05-14T22:57:38.630Z,45.20
2018-05-14T23:00:06.112Z,46.00
2018-05-14T23:02:33.570Z,46.00
2018-05-14T23:05:01.064Z,45.90
2018-05-14T23:07:29.266Z,46.20
2018-05-14T23:09:56.699Z,46.20
2018-05-14T23:12:24.920Z,46.20
2018-05-14T23:14:52.364Z,46.20
2018-05-14T23:17:20.405Z,46.60
2018-05-14T23:19:48.618Z,46.10
2018-05-14T23:22:16.062Z,46.10
2018-05-14T23:24:44.162Z,46.40
2018-05-14T23:27:11.606Z,45.80
2018-05-14T23:29:39.049Z,45.70
2018-05-14T23:32:06.486Z,45.80
2018-05-14T23:34:33.920Z,45.90
2018-05-14T23:37:01.455Z,45.80
2018-05-14T23:39:28.890Z,46.80
2018-05-14T23:41:56.326Z,45.60
2018-05-14T23:44:23.763Z,45.20
2018-05-14T23:46:51.998Z,45.00
2018-05-14T23:49:19.555Z,44.90
2018-05-14T23:51:47.675Z,45.20
2018-05-14T23:54:15.902Z,44.80
2018-05-14T23:56:43.356Z,44.80
2018-05-14T23:59:10.814Z,44.80
